CheckWX is a tool to help pilots better visualize weather data.  It is not intended as a substitute for an official pre-flight weather briefing.

02:52:19 UTC

KAXA METAR
Algona Municipal Airport
Algona, Iowa, USA
Current

17 mins ago

KAXA 230235Z AUTO 29004KT 10SM CLR 12/12 A2997 RMK A01
Observed
Sep-23 @ 02:35 UTC
Wind
  • 290° at 4 KTS
Visibility
10 SM
Flight Rules
VFR
Cloud Levels
  • Clear skies
Temperature
12°C / 54°F
Dewpoint
12°C / 54°F
Humidity
100%
Altimeter
29.97" Hg
Pressure
1014.92 hPa
Previous

37 mins ago

KAXA 230215Z AUTO 28004KT 10SM CLR 12/12 A2997 RMK A01
Observed
Sep-23 @ 02:15 UTC
Wind
  • 280° at 4 KTS
Visibility
10 SM
Flight Rules
VFR
Cloud Levels
  • Clear skies
Temperature
12°C / 54°F
Dewpoint
12°C / 54°F
Humidity
100%
Altimeter
29.97" Hg
Pressure
1014.92 hPa
Previous

57 mins ago

KAXA 230155Z AUTO 28004KT 10SM CLR 13/12 A2996 RMK A01
Observed
Sep-23 @ 01:55 UTC
Wind
  • 280° at 4 KTS
Visibility
10 SM
Flight Rules
VFR
Cloud Levels
  • Clear skies
Temperature
13°C / 55°F
Dewpoint
12°C / 54°F
Humidity
94%
Altimeter
29.96" Hg
Pressure
1014.52 hPa